Time;durP1;ratioP1;P1;durP2;ratioP2;P2;SDS_P1;SDS_P2;PMS_P1;PMS_P2;Temp;Humidity;BMP_temperature;BMP_pressure;BME280_temperature;BME280_humidity;BME280_pressure;Samples;Min_cycle;Max_cycle;Signal;HPM_P1;HPM_P2
2021/12/24 00:00:19;;;;;;;;;35.50;32.50;;;;;8.98;83.73;100630.03;5118940;27;45371;-79
2021/12/24 00:02:44;;;;;;;;;36.75;32.50;;;;;8.93;84.10;100606.69;5118517;27;46195;-79
2021/12/24 00:05:10;;;;;;;;;39.00;33.50;;;;;8.95;84.14;100614.47;5119150;27;46904;-79
2021/12/24 00:07:36;;;;;;;;;42.50;37.00;;;;;9.00;83.96;100620.09;5124037;27;45696;-78
2021/12/24 00:10:04;;;;;;;;;41.75;36.25;;;;;9.05;83.94;100628.38;5122389;27;45224;-79
2021/12/24 00:12:33;;;;;;;;;48.75;40.25;;;;;9.01;83.84;100599.72;5123553;27;45460;-79
2021/12/24 00:15:03;;;;;;;;;45.25;37.50;;;;;9.06;83.85;100603.53;5123481;27;45536;-79
2021/12/24 00:17:29;;;;;;;;;40.00;36.25;;;;;9.04;83.72;100591.44;5123617;27;45313;-79
2021/12/24 00:20:28;;;;;;;;;42.50;36.75;;;;;9.07;84.06;100594.56;5123520;27;45252;-79
2021/12/24 00:36:22;;;;;;;;;43.75;37.00;;;;;8.96;84.23;100598.41;5122811;27;45824;-79
2021/12/24 00:38:48;;;;;;;;;51.75;42.00;;;;;9.03;83.74;100606.50;5102833;27;45239;-79
2021/12/24 00:41:14;;;;;;;;;48.25;40.75;;;;;9.04;84.09;100610.81;5101419;27;45305;-79
2021/12/24 00:43:39;;;;;;;;;48.50;40.50;;;;;9.01;83.81;100597.06;5102447;27;45220;-79
2021/12/24 00:46:05;;;;;;;;;46.75;39.75;;;;;9.06;83.92;100592.91;5102586;27;45398;-79
2021/12/24 00:48:30;;;;;;;;;49.25;39.50;;;;;9.00;83.66;100577.69;5102750;27;45136;-79
2021/12/24 00:56:04;;;;;;;;;42.50;36.00;;;;;9.07;83.58;100577.84;5102134;27;46118;-79
2021/12/24 00:58:30;;;;;;;;;45.00;36.75;;;;;9.03;83.66;100564.09;5102129;27;45259;-79
2021/12/24 01:00:56;;;;;;;;;39.00;35.25;;;;;8.98;83.82;100547.84;5100966;27;45349;-79
2021/12/24 01:03:22;;;;;;;;;40.50;34.50;;;;;9.06;83.75;100549.66;5101946;27;45579;-79
2021/12/24 01:05:47;;;;;;;;;35.75;33.75;;;;;8.98;83.63;100536.44;5100579;27;47840;-79
2021/12/24 01:08:15;;;;;;;;;45.50;37.25;;;;;9.05;83.94;100527.66;5102199;27;45445;-79
2021/12/24 01:10:49;;;;;;;;;41.25;34.25;;;;;9.02;84.08;100524.50;5102378;27;45358;-79
2021/12/24 01:13:15;;;;;;;;;47.75;37.00;;;;;9.00;83.80;100523.81;5100376;27;46123;-79
2021/12/24 01:16:03;;;;;;;;;43.75;36.50;;;;;8.98;83.95;100518.69;5101974;27;45976;-79
2021/12/24 01:21:18;;;;;;;;;43.00;37.00;;;;;8.90;83.81;100508.13;5101871;27;45314;-79
2021/12/24 01:23:57;;;;;;;;;40.75;35.25;;;;;8.85;84.32;100505.97;5101892;27;45347;-79
2021/12/24 01:37:58;;;;;;;;;51.75;42.75;;;;;8.63;83.66;100500.38;5111170;27;46004;-79
2021/12/24 01:42:52;;;;;;;;;49.75;40.50;;;;;8.52;84.02;100493.56;5122413;27;45301;-79
2021/12/24 01:45:25;;;;;;;;;41.75;36.75;;;;;8.61;84.32;100518.25;5122123;27;45266;-79
2021/12/24 01:47:56;;;;;;;;;42.00;35.75;;;;;8.62;84.27;100519.91;5120759;27;48192;-79
2021/12/24 01:50:23;;;;;;;;;43.25;35.25;;;;;8.63;84.49;100507.50;5121953;27;45373;-79
2021/12/24 01:52:50;;;;;;;;;43.75;35.75;;;;;8.65;84.73;100516.94;5120656;27;45371;-79
2021/12/24 01:55:17;;;;;;;;;40.25;35.50;;;;;8.66;84.62;100515.09;5122146;27;45247;-79
2021/12/24 01:57:43;;;;;;;;;44.25;37.75;;;;;8.65;84.30;100514.28;5120494;27;47013;-79
2021/12/24 02:00:13;;;;;;;;;47.50;38.50;;;;;8.64;84.53;100517.94;5121810;27;45318;-79
2021/12/24 02:02:39;;;;;;;;;40.50;35.75;;;;;8.59;84.23;100512.28;5120422;27;45418;-79
2021/12/24 02:05:05;;;;;;;;;43.75;37.00;;;;;8.56;84.49;100507.34;5120327;27;45339;-79
2021/12/24 02:07:30;;;;;;;;;43.50;36.75;;;;;8.63;84.37;100510.16;5121953;27;46470;-79
2021/12/24 02:09:56;;;;;;;;;48.50;38.00;;;;;8.65;84.47;100522.22;5121743;27;45327;-79
2021/12/24 02:12:24;;;;;;;;;45.50;38.25;;;;;8.67;84.41;100520.25;5120511;27;45266;-79
2021/12/24 02:14:53;;;;;;;;;53.00;42.50;;;;;8.59;84.54;100509.63;5121637;27;45331;-79
2021/12/24 02:30:49;;;;;;;;;51.50;42.25;;;;;8.67;84.38;100499.03;5121014;27;45254;-79
2021/12/24 02:33:14;;;;;;;;;54.25;44.00;;;;;8.76;84.38;100502.50;5121588;27;45415;-79
2021/12/24 02:35:41;;;;;;;;;61.00;45.75;;;;;8.76;84.34;100507.81;5119982;27;46028;-78
2021/12/24 02:38:07;;;;;;;;;57.75;46.00;;;;;8.77;84.60;100498.84;5106947;27;45384;-79
2021/12/24 02:40:33;;;;;;;;;54.50;44.75;;;;;8.67;84.48;100482.31;5100709;27;45337;-79
2021/12/24 02:43:00;;;;;;;;;54.25;44.25;;;;;8.74;84.61;100498.38;5099356;27;45306;-79
2021/12/24 02:45:28;;;;;;;;;53.25;43.75;;;;;8.76;84.64;100494.56;5099174;27;46390;-79
2021/12/24 02:48:13;;;;;;;;;54.25;44.00;;;;;8.71;84.40;100481.81;5100552;27;45335;-79
2021/12/24 02:56:11;;;;;;;;;48.75;41.75;;;;;8.82;84.18;100491.25;5100328;27;45230;-79
2021/12/24 02:58:40;;;;;;;;;44.25;38.50;;;;;8.81;84.53;100494.91;5100329;27;45496;-79
2021/12/24 03:01:06;;;;;;;;;50.25;41.00;;;;;8.74;84.54;100487.78;5099115;27;45420;-79
2021/12/24 03:03:32;;;;;;;;;41.50;35.25;;;;;8.79;84.50;100488.94;5100472;27;45295;-79
2021/12/24 03:05:57;;;;;;;;;44.25;36.00;;;;;8.76;84.46;100478.66;5098830;27;45826;-79
2021/12/24 03:08:22;;;;;;;;;43.00;34.25;;;;;8.78;84.67;100481.16;5100422;27;45227;-79
2021/12/24 03:10:48;;;;;;;;;38.00;34.00;;;;;8.65;84.63;100463.94;5100399;27;45256;-79
2021/12/24 03:13:13;;;;;;;;;38.00;33.00;;;;;8.73;84.57;100472.84;5100470;27;45255;-79
2021/12/24 03:15:39;;;;;;;;;34.75;32.75;;;;;8.77;84.60;100488.25;5100154;27;45466;-79
2021/12/24 03:18:05;;;;;;;;;35.00;31.00;;;;;8.78;84.14;100475.84;5100233;27;45178;-79
2021/12/24 03:20:33;;;;;;;;;34.33;32.00;;;;;8.81;84.44;100471.03;5098657;27;45265;-79
2021/12/24 03:23:21;;;;;;;;;36.50;32.50;;;;;8.76;84.47;100472.53;5100419;27;45292;-79
2021/12/24 03:25:46;;;;;;;;;41.25;35.75;;;;;8.80;84.77;100471.22;5100086;27;45310;-79
2021/12/24 03:28:12;;;;;;;;;38.75;34.50;;;;;8.73;84.68;100456.97;5098710;27;47219;-79
2021/12/24 03:30:37;;;;;;;;;35.75;31.00;;;;;8.84;84.83;100464.56;5100051;27;45220;-79
2021/12/24 03:33:03;;;;;;;;;38.75;34.00;;;;;8.80;85.14;100457.97;5100203;27;45220;-79
2021/12/24 03:35:28;;;;;;;;;37.75;33.75;;;;;8.88;85.03;100465.88;5098598;27;47077;-79
2021/12/24 03:37:53;;;;;;;;;39.75;34.25;;;;;8.95;84.89;100471.34;5111002;27;46988;-79
2021/12/24 03:40:19;;;;;;;;;37.75;33.25;;;;;8.94;84.91;100459.06;5120211;27;45300;-79
2021/12/24 03:42:44;;;;;;;;;42.25;33.75;;;;;8.89;84.65;100442.88;5123125;27;45273;-79
2021/12/24 03:45:24;;;;;;;;;40.75;35.75;;;;;8.98;84.36;100451.63;5124164;27;45909;-79
2021/12/24 03:47:56;;;;;;;;;38.00;33.50;;;;;8.84;84.42;100430.13;5124211;27;45391;-79
2021/12/24 03:50:25;;;;;;;;;40.75;34.75;;;;;8.96;84.44;100447.31;5123739;27;45364;-79
2021/12/24 03:55:18;;;;;;;;;41.00;34.50;;;;;8.99;84.85;100442.66;5123935;27;45434;-79
2021/12/24 03:57:44;;;;;;;;;39.50;35.00;;;;;8.90;84.74;100431.25;5123842;27;46136;-79
2021/12/24 04:00:14;;;;;;;;;38.25;33.75;;;;;9.01;84.49;100452.09;5122500;27;45559;-79
2021/12/24 04:02:40;;;;;;;;;42.50;37.25;;;;;9.03;84.92;100460.69;5124241;27;45368;-79
2021/12/24 04:05:06;;;;;;;;;42.50;37.00;;;;;8.95;84.39;100443.00;5122296;27;46452;-79
2021/12/24 04:07:31;;;;;;;;;48.50;39.00;;;;;9.03;84.67;100450.09;5122213;27;46269;-79
2021/12/24 04:10:02;;;;;;;;;42.00;36.00;;;;;8.99;84.79;100432.06;5123785;27;45293;-79
2021/12/24 04:12:28;;;;;;;;;43.50;35.75;;;;;8.99;84.55;100421.44;5122315;27;45327;-79
2021/12/24 04:14:54;;;;;;;;;44.00;37.00;;;;;8.98;84.21;100425.91;5123450;27;45298;-79
2021/12/24 04:17:21;;;;;;;;;43.25;37.00;;;;;9.05;84.33;100434.84;5122229;27;47227;-79
2021/12/24 04:25:14;;;;;;;;;40.50;35.75;;;;;8.99;84.55;100426.75;5123372;27;45335;-79
2021/12/24 04:27:39;;;;;;;;;36.50;33.00;;;;;8.90;84.93;100418.00;5121916;27;47517;-79
2021/12/24 04:30:11;;;;;;;;;38.25;34.75;;;;;9.00;84.43;100431.88;5121970;27;45488;-79
2021/12/24 04:35:32;;;;;;;;;38.00;33.75;;;;;9.05;84.51;100418.13;5123240;27;45402;-79
2021/12/24 04:51:59;;;;;;;;;33.33;31.33;;;;;8.95;84.78;100389.19;5119593;27;45473;-79
2021/12/24 05:02:51;;;;;;;;;46.00;36.75;;;;;9.03;84.85;100390.94;5101995;27;45255;-79
2021/12/24 05:05:37;;;;;;;;;47.75;39.50;;;;;9.04;84.67;100384.66;5102214;27;45381;-79
2021/12/24 05:10:37;;;;;;;;;39.25;35.00;;;;;8.94;84.96;100372.44;5102132;27;45223;-79
2021/12/24 05:13:03;;;;;;;;;43.75;37.00;;;;;9.02;84.97;100390.13;5102042;27;45359;-79
2021/12/24 05:15:30;;;;;;;;;46.75;38.75;;;;;9.03;85.12;100393.59;5102136;27;45353;-79
2021/12/24 05:23:07;;;;;;;;;46.00;38.00;;;;;8.96;84.97;100370.44;5101885;27;45349;-78
2021/12/24 05:25:41;;;;;;;;;43.50;37.25;;;;;9.03;85.22;100375.88;5101984;27;45238;-78
2021/12/24 05:28:06;;;;;;;;;39.00;35.25;;;;;9.10;84.94;100389.28;5102072;27;45220;-78
2021/12/24 05:30:32;;;;;;;;;33.00;31.50;;;;;9.07;84.73;100379.00;5100277;27;48414;-78
2021/12/24 05:32:57;;;;;;;;;30.00;26.50;;;;;9.00;84.59;100375.38;5101898;27;45229;-79
2021/12/24 05:35:22;;;;;;;;;36.25;33.00;;;;;9.05;84.95;100379.19;5101771;27;45383;-79
2021/12/24 05:37:48;;;;;;;;;28.00;28.00;;;;;9.05;84.81;100373.06;5112116;27;46927;-79
2021/12/24 05:40:13;;;;;;;;;33.00;30.00;;;;;9.00;84.97;100365.63;5122374;27;45407;-79
2021/12/24 05:42:39;;;;;;;;;32.67;30.00;;;;;8.99;84.98;100361.31;5120896;27;45369;-79
2021/12/24 05:45:06;;;;;;;;;27.75;27.75;;;;;9.05;84.92;100376.53;5122533;27;45194;-78
2021/12/24 05:47:32;;;;;;;;;28.00;26.33;;;;;9.12;85.29;100374.00;5122226;27;45396;-79
2021/12/24 05:49:58;;;;;;;;;29.00;24.00;;;;;9.16;84.82;100371.84;5121984;27;45351;-79
2021/12/24 05:52:24;;;;;;;;;29.33;27.67;;;;;9.10;84.86;100349.50;5121871;27;45283;-78
2021/12/24 05:54:49;;;;;;;;;26.67;23.33;;;;;9.17;84.73;100366.38;5122205;27;45490;-79
2021/12/24 05:57:15;;;;;;;;;24.33;22.33;;;;;9.15;84.78;100367.53;5122356;27;45444;-79
2021/12/24 05:59:40;;;;;;;;;26.33;25.67;;;;;9.06;84.83;100356.97;5120535;27;46395;-78
2021/12/24 06:02:06;;;;;;;;;27.67;26.00;;;;;9.09;85.00;100358.44;5120746;27;45399;-78
2021/12/24 06:04:31;;;;;;;;;26.33;25.33;;;;;9.13;85.01;100367.69;5121559;27;45466;-78
2021/12/24 06:06:58;;;;;;;;;23.00;23.00;;;;;9.16;85.39;100374.50;5120487;27;45796;-78
2021/12/24 06:09:24;;;;;;;;;24.67;23.00;;;;;9.04;85.10;100356.31;5120634;27;48113;-78
2021/12/24 06:11:49;;;;;;;;;27.33;26.00;;;;;9.13;85.35;100380.94;5121749;27;45315;-77
2021/12/24 06:14:14;;;;;;;;;24.00;23.00;;;;;9.06;85.58;100369.38;5120598;27;45377;-79
2021/12/24 06:16:50;;;;;;;;;25.67;25.67;;;;;9.09;85.31;100372.53;5121837;27;45239;-77
2021/12/24 06:19:17;;;;;;;;;47.25;38.50;;;;;9.04;85.29;100366.91;5121897;27;46261;-80
2021/12/24 06:21:44;;;;;;;;;36.50;33.50;;;;;9.02;85.58;100362.78;5120149;27;45399;-81
2021/12/24 06:24:12;;;;;;;;;44.00;36.00;;;;;9.00;85.46;100362.97;5120238;27;45337;-80
2021/12/24 06:26:37;;;;;;;;;25.67;25.33;;;;;9.07;86.29;100381.66;5121646;27;45595;-79
2021/12/24 06:29:02;;;;;;;;;26.33;24.67;;;;;9.03;86.11;100381.19;5120864;27;45403;-81
2021/12/24 06:31:28;;;;;;;;;26.00;24.00;;;;;8.98;85.89;100364.13;5102946;27;46058;-80
2021/12/24 06:33:53;;;;;;;;;26.33;23.67;;;;;9.10;85.99;100383.97;5121584;27;46071;-80
2021/12/24 06:36:19;;;;;;;;;26.00;24.67;;;;;9.08;85.92;100388.63;5121329;27;45422;-79
2021/12/24 06:38:44;;;;;;;;;30.67;29.67;;;;;8.92;86.24;100363.81;5101395;27;45593;-80
2021/12/24 06:41:09;;;;;;;;;34.75;28.75;;;;;9.06;86.59;100377.34;5100831;27;45337;-79
2021/12/24 06:43:36;;;;;;;;;32.00;31.00;;;;;9.06;86.68;100380.84;5099694;27;45459;-80
2021/12/24 06:46:09;;;;;;;;;35.75;32.50;;;;;8.99;86.81;100374.56;5100716;27;45469;-79
2021/12/24 06:48:34;;;;;;;;;33.25;31.50;;;;;9.03;86.98;100369.72;5100711;27;45291;-80
2021/12/24 06:51:00;;;;;;;;;34.33;31.00;;;;;9.06;87.12;100370.22;5099037;27;45642;-79
2021/12/24 06:53:25;;;;;;;;;34.00;31.00;;;;;9.12;86.75;100373.16;5099072;27;45372;-79
2021/12/24 06:55:50;;;;;;;;;34.50;33.00;;;;;9.13;86.32;100375.66;5100535;27;45544;-79
2021/12/24 06:58:16;;;;;;;;;40.50;33.75;;;;;9.10;86.59;100373.38;5098914;27;47228;-79
2021/12/24 07:00:41;;;;;;;;;34.75;32.00;;;;;9.16;86.47;100369.19;5100425;27;45337;-78
2021/12/24 07:03:07;;;;;;;;;33.67;31.00;;;;;9.17;86.72;100374.31;5099074;27;45597;-79
2021/12/24 07:05:32;;;;;;;;;35.00;33.25;;;;;9.16;86.92;100370.00;5100167;27;45543;-79
2021/12/24 07:07:57;;;;;;;;;34.50;31.00;;;;;9.01;86.90;100350.53;5100277;27;46284;-79
2021/12/24 07:10:23;;;;;;;;;27.67;26.67;;;;;9.11;87.16;100363.56;5100386;27;45408;-78
2021/12/24 07:12:48;;;;;;;;;31.00;26.33;;;;;9.09;87.10;100364.59;5100374;27;45349;-79
2021/12/24 07:15:13;;;;;;;;;27.33;27.00;;;;;9.16;87.00;100371.84;5098083;27;46633;-79
2021/12/24 07:17:39;;;;;;;;;26.33;25.33;;;;;9.08;87.19;100359.44;5100109;27;45786;-79
2021/12/24 07:20:05;;;;;;;;;27.67;25.00;;;;;9.15;87.18;100368.34;5100115;27;45861;-79
2021/12/24 07:22:30;;;;;;;;;28.67;25.67;;;;;9.15;86.94;100365.72;5098946;27;45347;-79
2021/12/24 07:24:56;;;;;;;;;24.67;23.00;;;;;9.12;87.01;100357.25;5098744;27;45807;-79
2021/12/24 07:27:21;;;;;;;;;26.33;23.00;;;;;9.03;87.18;100341.41;5100218;27;45284;-78
2021/12/24 07:29:46;;;;;;;;;27.00;25.00;;;;;9.16;87.10;100353.28;5099935;27;45280;-79
2021/12/24 07:32:12;;;;;;;;;31.33;27.67;;;;;9.06;87.01;100337.56;5100277;27;45572;-79
2021/12/24 07:34:37;;;;;;;;;27.67;27.00;;;;;9.05;87.10;100341.25;5099737;27;45611;-79
2021/12/24 07:37:03;;;;;;;;;34.33;31.33;;;;;9.02;87.15;100338.94;5105187;27;45207;-79
2021/12/24 07:39:28;;;;;;;;;37.25;32.25;;;;;9.12;87.50;100349.31;5120609;27;45222;-80
2021/12/24 07:41:54;;;;;;;;;34.00;31.00;;;;;9.11;87.49;100347.66;5119333;27;45856;-77
2021/12/24 07:44:20;;;;;;;;;57.50;47.75;;;;;9.06;87.16;100338.41;5119257;27;45317;-77
2021/12/24 07:46:53;;;;;;;;;55.00;44.50;;;;;9.03;87.05;100341.41;5118044;27;46406;-77
2021/12/24 07:52:08;;;;;;;;;45.25;37.00;;;;;9.08;87.02;100354.16;5118170;27;45511;-78
2021/12/24 07:54:39;;;;;;;;;44.00;36.50;;;;;9.08;87.38;100354.16;5118177;27;45422;-78
2021/12/24 07:57:05;;;;;;;;;40.75;36.00;;;;;9.13;87.40;100365.03;5117023;27;48463;-77
2021/12/24 07:59:31;;;;;;;;;35.75;30.50;;;;;9.10;87.31;100357.47;5119331;27;45597;-80
2021/12/24 08:01:57;;;;;;;;;42.25;34.75;;;;;9.16;87.16;100358.59;5119166;27;45345;-80
2021/12/24 08:04:23;;;;;;;;;37.00;32.00;;;;;9.06;87.43;100341.06;5119862;27;45387;-80
2021/12/24 08:06:49;;;;;;;;;37.50;33.00;;;;;9.09;87.41;100346.03;5118917;27;48215;-80
2021/12/24 08:09:15;;;;;;;;;24.00;20.50;;;;;9.18;87.22;100362.72;5118494;27;45371;-81
2021/12/24 08:11:40;;;;;;;;;30.33;28.67;;;;;9.14;87.54;100349.97;5119088;27;45319;-81
2021/12/24 08:14:06;;;;;;;;;31.00;29.33;;;;;9.06;87.35;100333.09;5111720;27;45382;-81
2021/12/24 08:16:33;;;;;;;;;26.00;25.33;;;;;9.05;87.42;100323.50;5085711;27;46803;-80
2021/12/24 08:18:59;;;;;;;;;23.33;21.00;;;;;9.16;87.54;100348.78;5088523;27;45260;-81
2021/12/24 08:21:25;;;;;;;;;18.33;18.33;;;;;9.18;88.29;100341.50;5086870;27;45228;-80
2021/12/24 08:23:51;;;;;;;;;19.00;18.33;;;;;9.16;88.25;100324.13;5087432;27;45286;-79
2021/12/24 08:26:18;;;;;;;;;18.33;18.33;;;;;9.24;88.27;100328.53;5095004;27;47161;-80
2021/12/24 08:28:43;;;;;;;;;18.67;18.33;;;;;9.13;88.01;100314.66;5091420;27;45363;-79
2021/12/24 08:31:09;;;;;;;;;19.33;19.33;;;;;9.25;87.75;100327.53;5089765;27;45405;-78
2021/12/24 08:33:35;;;;;;;;;18.67;16.67;;;;;9.27;87.60;100331.66;5093217;27;46359;-78
2021/12/24 08:36:03;;;;;;;;;20.33;20.33;;;;;9.31;88.11;100340.09;5099260;27;45263;-79
2021/12/24 08:38:28;;;;;;;;;20.33;20.33;;;;;9.25;88.03;100325.69;5117400;27;45222;-79
2021/12/24 08:40:53;;;;;;;;;17.67;17.67;;;;;9.22;87.82;100310.16;5089746;27;45283;-79
2021/12/24 08:43:19;;;;;;;;;16.33;16.33;;;;;9.30;87.53;100311.91;5091530;27;45654;-79
2021/12/24 08:45:44;;;;;;;;;23.00;20.67;;;;;9.27;88.00;100299.84;5090792;27;45663;-79
2021/12/24 08:48:10;;;;;;;;;27.00;23.00;;;;;9.27;87.88;100293.69;5089991;27;45623;-79
2021/12/24 08:50:35;;;;;;;;;20.67;18.00;;;;;9.34;87.33;100308.72;5102255;27;45286;-78
2021/12/24 08:53:00;;;;;;;;;16.00;16.00;;;;;9.33;87.71;100320.34;5101192;27;45985;-78
2021/12/24 08:55:26;;;;;;;;;20.33;18.33;;;;;9.33;88.00;100314.22;5096837;27;47045;-78
2021/12/24 08:57:51;;;;;;;;;19.33;17.67;;;;;9.38;87.98;100321.66;5100879;27;45946;-79
2021/12/24 09:00:19;;;;;;;;;15.00;14.33;;;;;9.30;87.80;100306.59;5102526;27;45845;-80
2021/12/24 09:02:44;;;;;;;;;17.33;16.00;;;;;9.41;87.94;100319.47;5102309;27;45340;-79
2021/12/24 09:05:10;;;;;;;;;15.67;15.33;;;;;9.46;87.83;100325.06;5102095;27;45347;-78
2021/12/24 09:07:36;;;;;;;;;17.67;17.00;;;;;9.56;87.77;100324.00;5102616;27;45301;-77
2021/12/24 09:10:02;;;;;;;;;17.00;16.33;;;;;9.45;87.41;100301.38;5080764;27;45323;-78
2021/12/24 09:12:27;;;;;;;;;14.67;14.67;;;;;9.59;87.28;100316.53;5096474;27;47146;-79
2021/12/24 09:14:53;;;;;;;;;16.33;14.33;;;;;9.58;87.50;100314.06;5081028;27;45317;-78
2021/12/24 09:17:20;;;;;;;;;14.00;14.00;;;;;9.65;87.57;100325.59;5081646;27;45281;-77
2021/12/24 09:19:48;;;;;;;;;15.67;15.00;;;;;9.71;87.90;100321.41;5080684;27;45369;-77
2021/12/24 09:22:17;;;;;;;;;15.00;13.67;;;;;9.76;87.59;100323.53;5081328;27;45484;-75
2021/12/24 09:24:45;;;;;;;;;17.67;15.33;;;;;9.76;87.82;100310.25;5081253;27;45239;-75
2021/12/24 09:27:10;;;;;;;;;15.67;15.33;;;;;9.77;87.94;100320.69;5096917;27;45575;-75
2021/12/24 09:29:36;;;;;;;;;16.67;16.33;;;;;9.83;88.06;100317.31;5081421;27;45359;-76
2021/12/24 09:32:02;;;;;;;;;18.33;17.33;;;;;9.83;88.27;100309.34;5081363;27;45496;-76
2021/12/24 09:34:27;;;;;;;;;18.33;18.33;;;;;9.90;87.78;100305.97;5080967;27;46327;-76
2021/12/24 09:36:53;;;;;;;;;22.67;21.00;;;;;9.88;87.64;100316.78;5087406;27;45361;-76
2021/12/24 09:39:18;;;;;;;;;22.00;19.33;;;;;9.92;88.06;100307.44;5122084;27;45402;-75
2021/12/24 09:41:44;;;;;;;;;20.00;18.00;;;;;10.00;88.47;100321.66;5122238;27;45303;-75
2021/12/24 09:44:10;;;;;;;;;22.33;18.00;;;;;9.99;88.53;100315.50;5122123;27;45388;-75
2021/12/24 09:46:40;;;;;;;;;19.00;17.67;;;;;10.10;88.40;100316.91;5122279;27;45254;-75
2021/12/24 09:49:05;;;;;;;;;18.67;17.33;;;;;10.21;87.84;100321.75;5120960;27;45381;-75
2021/12/24 09:51:37;;;;;;;;;16.67;15.00;;;;;10.21;88.35;100320.94;5121804;27;45553;-75
2021/12/24 09:54:02;;;;;;;;;16.00;16.00;;;;;10.26;88.53;100320.41;5121844;27;46240;-75
2021/12/24 09:56:27;;;;;;;;;14.67;14.67;;;;;10.20;88.43;100298.03;5122095;27;45308;-76
2021/12/24 09:58:53;;;;;;;;;17.67;17.00;;;;;10.32;88.50;100311.69;5122304;27;45283;-75
2021/12/24 10:01:51;;;;;;;;;17.33;17.00;;;;;10.35;88.49;100311.31;5120653;27;47053;-75
2021/12/24 10:04:19;;;;;;;;;17.67;16.67;;;;;10.29;88.53;100296.09;5102110;27;48566;-75
2021/12/24 10:06:55;;;;;;;;;19.67;19.67;;;;;10.41;88.64;100318.56;5121973;27;45332;-76
2021/12/24 10:09:28;;;;;;;;;19.33;19.00;;;;;10.48;88.54;100308.06;5120619;27;45304;-76
2021/12/24 10:12:00;;;;;;;;;20.67;19.67;;;;;10.51;88.40;100312.19;5120314;27;46224;-75
2021/12/24 10:14:40;;;;;;;;;24.67;21.67;;;;;10.46;88.31;100292.31;5121529;27;45922;-76
2021/12/24 10:17:15;;;;;;;;;18.67;18.67;;;;;10.51;88.21;100290.91;5120433;27;46086;-76
2021/12/24 10:19:46;;;;;;;;;21.00;20.00;;;;;10.56;88.41;100294.66;5121474;27;45355;-76
2021/12/24 10:22:12;;;;;;;;;19.00;17.33;;;;;10.43;88.82;100267.91;5121576;27;45396;-76
2021/12/24 10:24:38;;;;;;;;;18.67;18.33;;;;;10.48;88.71;100284.97;5120043;27;46225;-76
2021/12/24 10:27:04;;;;;;;;;21.67;20.33;;;;;10.44;88.71;100282.81;5121209;27;45355;-77
2021/12/24 10:29:31;;;;;;;;;25.33;22.00;;;;;10.48;88.66;100278.84;5120229;27;45461;-76
2021/12/24 10:32:07;;;;;;;;;21.00;19.00;;;;;10.58;88.74;100294.47;5120186;27;46245;-76
2021/12/24 10:34:37;;;;;;;;;22.67;22.67;;;;;10.51;88.65;100274.97;5120705;27;47243;-76
2021/12/24 10:37:08;;;;;;;;;26.00;23.33;;;;;10.58;88.71;100294.47;5115398;27;45403;-75
2021/12/24 10:39:37;;;;;;;;;26.00;25.67;;;;;10.56;88.36;100275.22;5088893;27;45284;-77
2021/12/24 10:42:32;;;;;;;;;29.67;28.00;;;;;10.57;89.01;100275.03;5087658;27;45811;-76
2021/12/24 10:44:59;;;;;;;;;26.33;22.33;;;;;10.58;88.70;100254.63;5087399;27;45992;-77
2021/12/24 10:47:31;;;;;;;;;27.67;24.67;;;;;10.72;88.86;100272.38;5087251;27;45430;-76
2021/12/24 10:55:23;;;;;;;;;22.33;20.00;;;;;10.71;88.12;100269.88;5089716;27;45484;-77
2021/12/24 10:57:54;;;;;;;;;27.00;26.33;;;;;10.73;88.27;100274.03;5094327;27;45319;-77
2021/12/24 11:00:39;;;;;;;;;25.33;24.33;;;;;10.70;88.55;100274.41;5098969;27;45342;-76
2021/12/24 11:03:08;;;;;;;;;22.00;22.00;;;;;10.72;88.54;100266.25;5098955;27;46224;-76
2021/12/24 11:05:34;;;;;;;;;26.33;25.67;;;;;10.73;88.73;100250.09;5099873;27;45345;-75
2021/12/24 11:08:04;;;;;;;;;29.00;28.00;;;;;10.80;88.79;100241.34;5100259;27;45248;-76
2021/12/24 11:10:33;;;;;;;;;26.67;26.33;;;;;10.80;88.59;100246.69;5100431;27;45322;-76
2021/12/24 11:13:08;;;;;;;;;30.67;29.33;;;;;10.78;88.49;100246.91;5098797;27;47142;-76
2021/12/24 11:15:40;;;;;;;;;27.33;26.33;;;;;10.83;88.60;100247.13;5100058;27;46018;-75
2021/12/24 11:18:23;;;;;;;;;27.33;26.67;;;;;10.84;88.60;100226.72;5100187;27;45368;-75
2021/12/24 11:20:53;;;;;;;;;22.00;21.33;;;;;10.86;88.76;100230.81;5100203;27;45313;-76
2021/12/24 11:23:20;;;;;;;;;28.67;27.33;;;;;10.41;88.17;100153.84;5098485;27;46682;-76
2021/12/24 11:25:49;;;;;;;;;23.67;22.67;;;;;10.80;87.99;100222.75;5100120;27;45313;-75
2021/12/24 11:28:16;;;;;;;;;30.00;25.67;;;;;10.82;88.46;100231.38;5099935;27;45427;-76
2021/12/24 11:30:45;;;;;;;;;22.67;22.67;;;;;10.73;88.69;100215.56;5100318;27;45331;-76
2021/12/24 11:33:21;;;;;;;;;27.33;24.67;;;;;10.79;88.62;100202.50;5098481;27;47312;-76
2021/12/24 11:35:48;;;;;;;;;30.67;29.67;;;;;10.87;88.67;100199.75;5099714;27;45372;-76
2021/12/24 11:38:20;;;;;;;;;30.67;28.67;;;;;10.88;88.82;100180.13;5115134;27;45336;-76
2021/12/24 11:40:49;;;;;;;;;27.33;27.00;;;;;10.89;88.41;100176.44;5120577;27;45344;-76
2021/12/24 11:43:15;;;;;;;;;27.67;26.33;;;;;11.01;88.36;100181.25;5120410;27;45303;-75
2021/12/24 11:45:40;;;;;;;;;27.00;26.00;;;;;10.96;88.62;100174.66;5120347;27;45392;-76
2021/12/24 11:48:06;;;;;;;;;31.33;28.00;;;;;10.94;88.05;100173.22;5118932;27;45387;-77
2021/12/24 11:50:33;;;;;;;;;26.67;25.67;;;;;10.96;88.39;100179.16;5118972;27;45474;-76
2021/12/24 11:53:03;;;;;;;;;23.33;22.33;;;;;10.90;88.30;100177.25;5120197;27;45328;-76
2021/12/24 11:55:34;;;;;;;;;23.67;23.33;;;;;10.96;87.92;100187.16;5118895;27;47531;-76
2021/12/24 11:58:03;;;;;;;;;26.67;24.67;;;;;10.94;88.46;100183.84;5120283;27;45340;-76
2021/12/24 12:00:37;;;;;;;;;24.33;23.67;;;;;10.78;88.25;100161.84;5120377;27;45348;-75
2021/12/24 12:03:03;;;;;;;;;26.00;24.67;;;;;10.93;88.31;100176.88;5123688;27;45357;-76
2021/12/24 12:05:46;;;;;;;;;22.33;20.00;;;;;10.93;88.46;100171.56;5118042;27;45344;-77
2021/12/24 12:08:27;;;;;;;;;25.00;21.67;;;;;10.94;88.20;100167.88;5096496;27;45305;-76
2021/12/24 12:11:15;;;;;;;;;25.67;23.00;;;;;10.95;88.65;100181.00;5101888;27;45231;-76
2021/12/24 12:13:53;;;;;;;;;21.33;21.00;;;;;10.88;88.19;100163.31;5108744;27;46022;-76
2021/12/24 12:16:27;;;;;;;;;24.33;21.67;;;;;10.98;88.66;100169.97;5082538;27;46117;-77
2021/12/24 12:19:11;;;;;;;;;26.00;23.67;;;;;10.95;88.66;100161.53;5081020;28;45776;-76
2021/12/24 12:21:42;;;;;;;;;33.33;26.00;;;;;11.03;88.56;100168.56;5082655;28;45330;-76
2021/12/24 12:26:51;;;;;;;;;31.00;26.67;;;;;10.98;88.22;100169.97;5082631;27;46550;-76
2021/12/24 12:29:18;;;;;;;;;31.33;26.67;;;;;10.96;88.52;100166.69;5090727;27;45214;-76
2021/12/24 12:31:44;;;;;;;;;24.67;22.33;;;;;11.11;88.52;100179.09;5083654;27;45374;-76
2021/12/24 12:34:41;;;;;;;;;25.67;25.67;;;;;11.13;88.47;100176.25;5081753;27;45403;-76
2021/12/24 12:37:44;;;;;;;;;24.67;23.67;;;;;11.07;88.77;100175.16;5092271;27;48410;-76
2021/12/24 12:40:13;;;;;;;;;24.33;23.00;;;;;11.08;88.27;100182.13;5119606;27;45223;-76
2021/12/24 12:42:57;;;;;;;;;18.33;18.33;;;;;11.03;88.16;100187.19;5123063;27;45311;-76
2021/12/24 12:45:43;;;;;;;;;22.33;21.67;;;;;11.02;87.78;100191.69;5122782;27;45547;-76
2021/12/24 12:48:23;;;;;;;;;23.00;20.00;;;;;10.91;88.38;100174.41;5121488;27;46595;-75
2021/12/24 12:51:00;;;;;;;;;26.33;26.00;;;;;11.01;88.74;100182.06;5121398;27;45307;-76
2021/12/24 12:53:30;;;;;;;;;23.00;23.00;;;;;11.03;88.53;100182.72;5121417;27;45499;-77
2021/12/24 12:56:12;;;;;;;;;24.33;21.33;;;;;10.91;88.42;100162.94;5092368;27;45590;-76
2021/12/24 12:58:39;;;;;;;;;21.33;20.33;;;;;10.94;88.29;100173.22;5080041;28;47984;-76
2021/12/24 13:01:05;;;;;;;;;22.33;22.33;;;;;10.98;88.89;100179.78;5083931;27;45478;-76
2021/12/24 13:03:31;;;;;;;;;28.00;23.00;;;;;10.84;88.46;100154.94;5081332;27;45494;-76
2021/12/24 13:06:04;;;;;;;;;24.67;22.33;;;;;10.96;88.43;100165.88;5081617;27;45502;-76